createdAt,value
2016-11-12T00:00:11.928Z,1021.14
2016-11-12T00:00:52.703Z,1021.11
2016-11-12T00:01:33.426Z,1021.08
2016-11-12T00:02:14.198Z,1021.1
2016-11-12T00:02:54.870Z,1021.1
2016-11-12T00:03:35.519Z,1021.08
2016-11-12T00:04:16.230Z,1021.07
2016-11-12T00:04:56.949Z,1021.06
2016-11-12T00:05:37.705Z,1021.08
2016-11-12T00:06:18.490Z,1021.06
2016-11-12T00:06:59.202Z,1021.04
2016-11-12T00:07:39.876Z,1021.05
2016-11-12T00:08:20.504Z,1021.05
2016-11-12T00:09:01.308Z,1021.05
2016-11-12T00:09:42.077Z,1021.04
2016-11-12T00:10:22.786Z,1020.98
2016-11-12T00:11:03.452Z,1021.01
2016-11-12T00:11:44.092Z,1020.99
2016-11-12T00:12:24.810Z,1021.01
2016-11-12T00:13:05.648Z,1021
2016-11-12T00:13:46.494Z,1020.95
2016-11-12T00:14:27.186Z,1020.99
2016-11-12T00:15:07.871Z,1020.99
2016-11-12T00:15:48.639Z,1020.98
2016-11-12T00:16:29.326Z,1021.01
2016-11-12T00:17:09.992Z,1021.03
2016-11-12T00:17:50.714Z,1021.04
2016-11-12T00:18:31.466Z,1021.05
2016-11-12T00:19:12.128Z,1021.09
2016-11-12T00:19:52.850Z,1021.09
2016-11-12T00:20:33.576Z,1021.1
2016-11-12T00:21:14.318Z,1021.05
2016-11-12T00:21:54.932Z,1021.08
2016-11-12T00:22:35.788Z,1021.09
2016-11-12T00:23:16.473Z,1021.1
2016-11-12T00:23:57.168Z,1021.11
2016-11-12T00:24:37.946Z,1021.11
2016-11-12T00:25:18.686Z,1021.11
2016-11-12T00:25:59.350Z,1021.13
2016-11-12T00:26:40.008Z,1021.1
2016-11-12T00:27:20.668Z,1021.12
2016-11-12T00:28:01.422Z,1021.12
2016-11-12T00:28:42.083Z,1021.13
2016-11-12T00:29:22.706Z,1021.09
2016-11-12T00:30:03.398Z,1021.06
2016-11-12T00:30:44.058Z,1021.09
2016-11-12T00:31:24.730Z,1021.08
2016-11-12T00:32:05.392Z,1021.08
2016-11-12T00:32:46.098Z,1021.07
2016-11-12T00:33:26.792Z,1021.07
2016-11-12T00:34:07.479Z,1021.06
2016-11-12T00:34:48.163Z,1021.05
2016-11-12T00:35:28.880Z,1021.07
2016-11-12T00:36:09.636Z,1021.07
2016-11-12T00:36:50.260Z,1021.09
2016-11-12T00:37:30.972Z,1021.09
2016-11-12T00:38:11.657Z,1021.1
2016-11-12T00:38:52.300Z,1021.08
2016-11-12T00:39:32.868Z,1021.07
2016-11-12T00:40:13.587Z,1021.09
2016-11-12T00:40:54.230Z,1021.05
2016-11-12T00:41:34.914Z,1021.08
2016-11-12T00:42:15.505Z,1021.07
2016-11-12T00:42:56.180Z,1021.05
2016-11-12T00:43:36.803Z,1021.04
2016-11-12T00:44:17.387Z,1021.03
2016-11-12T00:44:58.013Z,1021.05
2016-11-12T00:45:38.705Z,1021.04
2016-11-12T00:46:19.409Z,1021.07
2016-11-12T00:47:00.057Z,1021.08
2016-11-12T00:47:40.786Z,1021.08
2016-11-12T00:48:21.465Z,1021.08
2016-11-12T00:49:02.158Z,1021.11
2016-11-12T00:49:42.836Z,1021.11
2016-11-12T00:50:23.468Z,1021.11
2016-11-12T00:52:51.682Z,1021.11
2016-11-12T00:53:32.361Z,1021.09
2016-11-12T00:54:12.973Z,1021.09
2016-11-12T00:54:53.599Z,1021.05
2016-11-12T00:55:34.353Z,1021.09
2016-11-12T00:56:15.053Z,1021.08
2016-11-12T00:56:55.669Z,1021.08
2016-11-12T00:57:36.351Z,1021.12
2016-11-12T00:59:55.325Z,1021.15
2016-11-12T01:00:35.962Z,1021.2
2016-11-12T01:01:16.664Z,1021.2
2016-11-12T01:01:57.486Z,1021.16
2016-11-12T01:02:38.186Z,1021.19
2016-11-12T01:03:18.920Z,1021.18
2016-11-12T01:03:59.634Z,1021.2
2016-11-12T01:04:40.281Z,1021.19
2016-11-12T01:05:20.897Z,1021.18
2016-11-12T01:06:01.511Z,1021.17
2016-11-12T01:06:42.185Z,1021.19
2016-11-12T01:07:22.858Z,1021.22
2016-11-12T01:08:03.462Z,1021.2
2016-11-12T01:08:44.151Z,1021.18
2016-11-12T01:09:24.796Z,1021.16
2016-11-12T01:10:05.526Z,1021.2
2016-11-12T01:10:46.247Z,1021.2
2016-11-12T01:11:26.937Z,1021.2
2016-11-12T01:12:07.719Z,1021.19
2016-11-12T01:12:48.403Z,1021.2
2016-11-12T01:13:29.057Z,1021.17
2016-11-12T01:14:09.641Z,1021.18
2016-11-12T01:14:50.398Z,1021.18
2016-11-12T01:15:31.185Z,1021.14
2016-11-12T01:16:11.844Z,1021.13
2016-11-12T01:16:52.519Z,1021.14
2016-11-12T01:17:33.269Z,1021.15
2016-11-12T01:18:13.916Z,1021.12
2016-11-12T01:18:54.598Z,1021.16
2016-11-12T01:19:35.284Z,1021.13
2016-11-12T01:20:15.906Z,1021.18
2016-11-12T01:20:56.533Z,1021.2
2016-11-12T01:21:37.166Z,1021.18
2016-11-12T01:22:17.915Z,1021.2
2016-11-12T01:22:58.709Z,1021.2
2016-11-12T01:23:39.377Z,1021.2
2016-11-12T01:24:20.099Z,1021.2
2016-11-12T01:25:00.724Z,1021.2
2016-11-12T01:25:41.391Z,1021.16
2016-11-12T01:26:22.125Z,1021.17
2016-11-12T01:27:02.870Z,1021.13
2016-11-12T01:27:43.544Z,1021.15
2016-11-12T01:28:24.216Z,1021.13
2016-11-12T01:29:04.906Z,1021.13
2016-11-12T01:29:45.562Z,1021.17
2016-11-12T01:30:26.164Z,1021.14
2016-11-12T01:31:06.838Z,1021.13
2016-11-12T01:31:47.546Z,1021.18
2016-11-12T01:32:28.175Z,1021.16
2016-11-12T01:33:08.916Z,1021.18
2016-11-12T01:33:49.504Z,1021.17
2016-11-12T01:34:30.193Z,1021.18
2016-11-12T01:35:10.852Z,1021.15
2016-11-12T01:35:51.537Z,1021.15
2016-11-12T01:36:32.175Z,1021.16
2016-11-12T01:37:12.893Z,1021.13
2016-11-12T01:37:53.550Z,1021.16
2016-11-12T01:38:34.141Z,1021.17
2016-11-12T01:39:14.791Z,1021.19
2016-11-12T01:39:55.499Z,1021.17
2016-11-12T01:40:36.154Z,1021.12
2016-11-12T01:41:16.795Z,1021.14
2016-11-12T01:41:57.537Z,1021.19
2016-11-12T01:42:38.177Z,1021.14
2016-11-12T01:43:18.875Z,1021.12
2016-11-12T01:43:59.523Z,1021.13
2016-11-12T01:44:40.149Z,1021.11
2016-11-12T01:45:20.841Z,1021.1
2016-11-12T01:46:01.611Z,1021.14
2016-11-12T01:46:42.348Z,1021.12
2016-11-12T01:47:23.009Z,1021.12
2016-11-12T01:48:03.771Z,1021.11
2016-11-12T01:48:44.410Z,1021.14
2016-11-12T01:49:25.011Z,1021.1
2016-11-12T01:50:05.663Z,1021.07
2016-11-12T01:50:46.338Z,1021.1
2016-11-12T01:51:27.000Z,1021.16
2016-11-12T01:52:07.650Z,1021.11
2016-11-12T01:52:48.269Z,1021.08
2016-11-12T01:53:28.872Z,1021.08
2016-11-12T01:54:09.552Z,1021.03
2016-11-12T01:54:50.132Z,1021.08
2016-11-12T01:55:30.734Z,1021.07
2016-11-12T01:56:11.343Z,1021.06
2016-11-12T01:56:51.998Z,1021.04
2016-11-12T01:57:32.892Z,1021.06
2016-11-12T01:58:13.579Z,1021.03
2016-11-12T01:58:54.206Z,1021.03
2016-11-12T01:59:34.819Z,1021.02
2016-11-12T02:00:15.549Z,1021.03
2016-11-12T02:00:56.216Z,1020.98
2016-11-12T02:01:36.967Z,1020.98
2016-11-12T02:02:17.571Z,1020.95
2016-11-12T02:02:58.297Z,1020.95
2016-11-12T02:03:38.941Z,1020.97
2016-11-12T02:04:19.665Z,1020.97
2016-11-12T02:05:00.247Z,1020.98
2016-11-12T02:05:40.943Z,1020.98
2016-11-12T02:06:21.651Z,1021
2016-11-12T02:07:02.292Z,1021.01
2016-11-12T02:07:42.883Z,1020.97
2016-11-12T02:08:23.489Z,1020.99
2016-11-12T02:09:04.251Z,1020.96
2016-11-12T02:09:44.791Z,1021.01
2016-11-12T02:10:25.459Z,1020.97
2016-11-12T02:11:06.069Z,1020.94
2016-11-12T02:11:46.729Z,1020.96
2016-11-12T02:12:27.412Z,1020.95
2016-11-12T02:13:08.242Z,1020.92
2016-11-12T02:13:48.877Z,1020.94
2016-11-12T02:14:29.508Z,1020.93
2016-11-12T02:15:10.227Z,1020.87
2016-11-12T02:15:50.911Z,1020.89
2016-11-12T02:16:31.491Z,1020.89
2016-11-12T02:17:12.191Z,1020.89
2016-11-12T02:17:52.803Z,1020.88
2016-11-12T02:18:33.392Z,1020.88
2016-11-12T02:19:13.989Z,1020.89
2016-11-12T02:19:54.731Z,1020.89
2016-11-12T02:20:35.323Z,1020.87
2016-11-12T02:21:16.026Z,1020.88
2016-11-12T02:21:56.671Z,1020.91
2016-11-12T02:22:37.295Z,1020.9
2016-11-12T02:23:17.928Z,1020.9
2016-11-12T02:23:59.262Z,1020.86
2016-11-12T02:24:39.235Z,1020.89
2016-11-12T02:25:19.960Z,1020.86
2016-11-12T02:26:00.632Z,1020.92
2016-11-12T02:26:41.318Z,1020.94
2016-11-12T02:27:22.020Z,1020.93
2016-11-12T02:28:02.728Z,1020.88
2016-11-12T02:28:43.430Z,1020.91
2016-11-12T02:29:24.043Z,1020.89
2016-11-12T02:30:04.773Z,1020.95
2016-11-12T02:30:45.430Z,1020.93
2016-11-12T02:31:26.030Z,1020.91
2016-11-12T02:32:06.678Z,1020.91
2016-11-12T02:32:47.340Z,1020.91
2016-11-12T02:33:27.988Z,1020.89
2016-11-12T02:34:08.716Z,1020.91
2016-11-12T02:34:49.368Z,1020.93
2016-11-12T02:35:30.099Z,1020.91
2016-11-12T02:36:10.688Z,1020.95
2016-11-12T02:36:51.348Z,1020.92
2016-11-12T02:37:31.966Z,1020.96
2016-11-12T02:38:12.536Z,1020.97
2016-11-12T02:38:53.187Z,1020.98
2016-11-12T02:39:33.918Z,1020.98
2016-11-12T02:40:14.613Z,1020.97
2016-11-12T02:40:55.237Z,1020.98
2016-11-12T02:41:35.804Z,1020.97
2016-11-12T02:42:16.466Z,1020.98
2016-11-12T02:42:57.204Z,1020.97
2016-11-12T02:43:37.779Z,1020.96
2016-11-12T02:44:18.409Z,1020.96
2016-11-12T02:44:59.003Z,1020.99
2016-11-12T02:45:39.628Z,1020.96
2016-11-12T02:46:20.339Z,1020.93
2016-11-12T02:47:01.027Z,1020.98
2016-11-12T02:47:41.669Z,1020.96
2016-11-12T02:48:22.305Z,1020.95
2016-11-12T02:49:02.962Z,1020.95
2016-11-12T02:49:43.707Z,1020.96
2016-11-12T02:50:24.406Z,1020.93
2016-11-12T02:51:04.985Z,1020.93
2016-11-12T02:51:45.577Z,1020.95
2016-11-12T02:52:26.206Z,1020.97
2016-11-12T02:53:06.795Z,1020.99
2016-11-12T02:53:47.439Z,1020.99
2016-11-12T02:54:28.119Z,1020.99
2016-11-12T02:55:08.765Z,1021.05
2016-11-12T02:55:49.403Z,1021.02
2016-11-12T02:56:30.143Z,1021.04
2016-11-12T02:57:10.703Z,1021.08
2016-11-12T02:57:51.370Z,1021.09
2016-11-12T02:58:32.189Z,1021.08
2016-11-12T02:59:12.925Z,1021.05
2016-11-12T02:59:53.551Z,1021.06
2016-11-12T03:00:34.234Z,1021.08
2016-11-12T03:01:14.863Z,1021.09
2016-11-12T03:01:55.453Z,1021.08
2016-11-12T03:02:36.104Z,1021.08
2016-11-12T03:03:16.765Z,1021.07
2016-11-12T03:03:57.593Z,1021.07
2016-11-12T03:04:38.166Z,1021.08
2016-11-12T03:05:18.787Z,1021.02
2016-11-12T03:05:59.395Z,1021.02
2016-11-12T03:06:40.108Z,1021.07
2016-11-12T03:07:20.817Z,1021.06
2016-11-12T03:08:01.436Z,1021.03
2016-11-12T03:08:42.156Z,1021.03
2016-11-12T03:09:22.898Z,1021.05
2016-11-12T03:10:03.590Z,1021
2016-11-12T03:10:44.210Z,1021.03
2016-11-12T03:11:24.846Z,1021.01
2016-11-12T03:12:05.518Z,1020.98
2016-11-12T03:12:46.144Z,1021.01
2016-11-12T03:13:26.802Z,1020.98
2016-11-12T03:14:07.424Z,1020.97
2016-11-12T03:14:48.052Z,1020.97
2016-11-12T03:15:28.692Z,1020.99
2016-11-12T03:16:09.376Z,1020.96
2016-11-12T03:16:50.034Z,1020.94
2016-11-12T03:17:30.608Z,1020.94
2016-11-12T03:18:11.362Z,1020.93
2016-11-12T03:18:52.036Z,1020.9
2016-11-12T03:19:32.655Z,1020.86
2016-11-12T03:20:13.280Z,1020.88
2016-11-12T03:20:53.890Z,1020.88
2016-11-12T03:21:34.504Z,1020.86
2016-11-12T03:22:15.138Z,1020.84
2016-11-12T03:22:55.758Z,1020.88
2016-11-12T03:23:36.366Z,1020.9
2016-11-12T03:24:17.084Z,1020.89
2016-11-12T03:24:57.709Z,1020.89
2016-11-12T03:25:38.390Z,1020.89
2016-11-12T03:26:19.784Z,1020.87
2016-11-12T03:26:59.687Z,1020.94
2016-11-12T03:27:40.335Z,1020.88
2016-11-12T03:28:20.927Z,1020.91
2016-11-12T03:29:01.668Z,1020.92
2016-11-12T03:29:42.304Z,1020.9
2016-11-12T03:30:22.980Z,1020.89
2016-11-12T03:31:03.549Z,1020.88
2016-11-12T03:31:44.183Z,1020.86
2016-11-12T03:32:24.857Z,1020.85
2016-11-12T03:33:05.588Z,1020.89
2016-11-12T03:33:46.287Z,1020.87
2016-11-12T03:34:26.959Z,1020.9
2016-11-12T03:35:07.624Z,1020.86
2016-11-12T03:35:48.333Z,1020.89
2016-11-12T03:36:29.051Z,1020.91
2016-11-12T03:37:09.749Z,1020.91
2016-11-12T03:37:50.481Z,1020.88
2016-11-12T03:38:31.139Z,1020.89
2016-11-12T03:39:11.953Z,1020.89
2016-11-12T03:39:52.666Z,1020.9
2016-11-12T03:40:33.339Z,1020.91
2016-11-12T03:41:14.004Z,1020.94
2016-11-12T03:41:54.655Z,1020.9
2016-11-12T03:42:35.367Z,1020.87
2016-11-12T03:43:16.053Z,1020.89
2016-11-12T03:43:56.666Z,1020.87
2016-11-12T03:44:37.462Z,1020.89
2016-11-12T03:45:18.137Z,1020.91
2016-11-12T03:45:58.804Z,1020.91
2016-11-12T03:46:39.527Z,1020.92
2016-11-12T03:47:20.155Z,1020.92
2016-11-12T03:48:00.933Z,1020.9
2016-11-12T03:48:41.569Z,1020.85
2016-11-12T03:49:22.289Z,1020.91
2016-11-12T03:50:02.947Z,1020.91
2016-11-12T03:50:43.578Z,1020.92
2016-11-12T03:51:24.268Z,1020.89
2016-11-12T03:52:05.016Z,1020.9
2016-11-12T03:52:45.764Z,1020.89
2016-11-12T03:53:26.368Z,1020.88
2016-11-12T03:54:07.198Z,1020.89
2016-11-12T03:54:47.788Z,1020.9
2016-11-12T03:55:28.646Z,1020.87
2016-11-12T03:56:09.282Z,1020.85
2016-11-12T03:56:49.920Z,1020.86
2016-11-12T03:57:30.616Z,1020.88
2016-11-12T03:58:11.296Z,1020.88
2016-11-12T03:58:51.894Z,1020.88
2016-11-12T03:59:32.499Z,1020.91
2016-11-12T04:00:13.158Z,1020.85
2016-11-12T04:00:53.759Z,1020.85
2016-11-12T04:01:34.439Z,1020.87
2016-11-12T04:02:15.000Z,1020.87
2016-11-12T04:02:55.754Z,1020.87
2016-11-12T04:03:36.513Z,1020.86
2016-11-12T04:04:17.139Z,1020.88
2016-11-12T04:04:57.886Z,1020.88
2016-11-12T04:05:38.487Z,1020.88
2016-11-12T04:06:19.137Z,1020.87
2016-11-12T04:06:59.823Z,1020.91
2016-11-12T04:07:40.503Z,1020.88
2016-11-12T04:08:21.210Z,1020.89
2016-11-12T04:09:02.013Z,1020.89
2016-11-12T04:09:42.759Z,1020.85
2016-11-12T04:10:23.450Z,1020.88
2016-11-12T04:11:04.157Z,1020.85
2016-11-12T04:11:44.852Z,1020.82
2016-11-12T04:12:25.506Z,1020.83
2016-11-12T04:13:06.107Z,1020.83
2016-11-12T04:13:46.862Z,1020.84
2016-11-12T04:14:27.608Z,1020.83
2016-11-12T04:15:08.197Z,1020.85
2016-11-12T04:15:48.894Z,1020.85
2016-11-12T04:16:29.568Z,1020.86
2016-11-12T04:17:10.226Z,1020.82
2016-11-12T04:17:50.928Z,1020.81
2016-11-12T04:18:31.572Z,1020.86
2016-11-12T04:19:12.257Z,1020.84
2016-11-12T04:19:52.971Z,1020.79
2016-11-12T04:20:33.621Z,1020.83
2016-11-12T04:21:14.241Z,1020.8
2016-11-12T04:21:54.959Z,1020.81
2016-11-12T04:22:35.652Z,1020.76
2016-11-12T04:23:16.369Z,1020.79
2016-11-12T04:23:57.019Z,1020.77
2016-11-12T04:24:37.813Z,1020.78
2016-11-12T04:25:18.569Z,1020.77
2016-11-12T04:25:59.136Z,1020.81
2016-11-12T04:26:39.855Z,1020.86
2016-11-12T04:27:20.552Z,1020.8
2016-11-12T04:28:01.149Z,1020.79
2016-11-12T04:28:41.794Z,1020.83
2016-11-12T04:29:22.506Z,1020.83
2016-11-12T04:30:03.158Z,1020.81
2016-11-12T04:30:43.812Z,1020.83
2016-11-12T04:31:24.477Z,1020.83
2016-11-12T04:32:05.265Z,1020.83
2016-11-12T04:32:46.059Z,1020.81
2016-11-12T04:33:26.762Z,1020.85
2016-11-12T04:34:07.504Z,1020.78
2016-11-12T04:34:48.164Z,1020.8
2016-11-12T04:35:28.766Z,1020.77
2016-11-12T04:36:09.396Z,1020.79
2016-11-12T04:36:49.965Z,1020.78
2016-11-12T04:37:30.587Z,1020.74
2016-11-12T04:38:11.257Z,1020.74
2016-11-12T04:38:51.943Z,1020.77
2016-11-12T04:39:32.547Z,1020.74
2016-11-12T04:40:13.233Z,1020.77
2016-11-12T04:40:53.921Z,1020.74
2016-11-12T04:41:34.691Z,1020.75
2016-11-12T04:42:15.367Z,1020.74
2016-11-12T04:42:56.103Z,1020.74
2016-11-12T04:43:36.677Z,1020.73
2016-11-12T04:44:17.293Z,1020.73
2016-11-12T04:44:57.980Z,1020.7
2016-11-12T04:45:38.699Z,1020.68
2016-11-12T04:46:19.397Z,1020.68
2016-11-12T04:47:00.064Z,1020.66
2016-11-12T04:47:40.860Z,1020.67
2016-11-12T04:48:21.567Z,1020.62
2016-11-12T04:49:02.215Z,1020.64
2016-11-12T04:49:42.830Z,1020.62
2016-11-12T04:50:23.510Z,1020.61
2016-11-12T04:51:04.223Z,1020.61
2016-11-12T04:51:44.894Z,1020.61
2016-11-12T04:52:25.556Z,1020.58
2016-11-12T04:53:06.416Z,1020.61
2016-11-12T04:53:47.044Z,1020.59
2016-11-12T04:54:27.636Z,1020.62
2016-11-12T04:55:08.326Z,1020.62
2016-11-12T04:55:49.004Z,1020.61
2016-11-12T04:56:29.704Z,1020.62
2016-11-12T04:57:10.348Z,1020.62
2016-11-12T04:57:50.978Z,1020.62
2016-11-12T04:58:31.670Z,1020.6
2016-11-12T04:59:12.418Z,1020.61
2016-11-12T04:59:53.054Z,1020.63
2016-11-12T05:00:33.774Z,1020.6
2016-11-12T05:01:14.538Z,1020.61
2016-11-12T05:01:55.246Z,1020.58
2016-11-12T05:02:35.940Z,1020.62
2016-11-12T05:03:16.576Z,1020.57
2016-11-12T05:03:57.286Z,1020.59
2016-11-12T05:04:37.899Z,1020.6
2016-11-12T05:05:18.608Z,1020.59
2016-11-12T05:05:59.260Z,1020.58
2016-11-12T05:06:39.868Z,1020.58
2016-11-12T05:07:20.489Z,1020.57
2016-11-12T05:08:01.185Z,1020.57
2016-11-12T05:08:41.759Z,1020.57
2016-11-12T05:09:22.511Z,1020.53
2016-11-12T05:10:03.309Z,1020.55
2016-11-12T05:10:43.953Z,1020.5
2016-11-12T05:11:24.614Z,1020.52
2016-11-12T05:12:05.239Z,1020.49
2016-11-12T05:12:45.875Z,1020.48
2016-11-12T05:13:26.532Z,1020.47
2016-11-12T05:14:07.287Z,1020.49
2016-11-12T05:14:47.905Z,1020.49
2016-11-12T05:15:28.547Z,1020.5
2016-11-12T05:16:09.203Z,1020.52
2016-11-12T05:16:49.925Z,1020.47
2016-11-12T05:17:30.545Z,1020.54
2016-11-12T05:18:11.133Z,1020.48
2016-11-12T05:18:51.767Z,1020.5
2016-11-12T05:19:32.411Z,1020.52
2016-11-12T05:21:50.385Z,1020.47
2016-11-12T05:23:42.945Z,1020.46
2016-11-12T05:24:23.642Z,1020.47
2016-11-12T05:25:04.398Z,1020.47
2016-11-12T05:25:45.073Z,1020.48
2016-11-12T05:26:25.770Z,1020.49
2016-11-12T05:27:06.488Z,1020.49
2016-11-12T05:27:47.158Z,1020.51
2016-11-12T05:28:27.758Z,1020.51
2016-11-12T05:29:08.418Z,1020.48
2016-11-12T05:29:49.059Z,1020.48
2016-11-12T05:30:29.743Z,1020.48
2016-11-12T05:31:10.432Z,1020.48
2016-11-12T05:31:51.139Z,1020.47
2016-11-12T05:32:31.939Z,1020.46
2016-11-12T05:33:12.673Z,1020.46
2016-11-12T05:33:53.965Z,1020.46
2016-11-12T05:34:34.627Z,1020.48
2016-11-12T05:35:15.223Z,1020.41
2016-11-12T05:35:55.874Z,1020.42
2016-11-12T05:36:36.538Z,1020.4
2016-11-12T05:37:17.228Z,1020.4
2016-11-12T05:37:57.923Z,1020.43
2016-11-12T05:38:38.589Z,1020.42
2016-11-12T05:39:19.371Z,1020.44
2016-11-12T05:40:00.093Z,1020.44
2016-11-12T05:40:40.725Z,1020.48
2016-11-12T05:41:21.377Z,1020.47
2016-11-12T05:42:02.082Z,1020.44
2016-11-12T05:42:42.705Z,1020.45
2016-11-12T05:43:23.300Z,1020.46
2016-11-12T05:44:04.085Z,1020.47
2016-11-12T05:44:44.713Z,1020.44
2016-11-12T05:45:25.529Z,1020.45
2016-11-12T05:46:06.271Z,1020.46
2016-11-12T05:46:46.997Z,1020.44
2016-11-12T05:47:27.589Z,1020.44
2016-11-12T05:48:08.259Z,1020.46
2016-11-12T05:48:48.944Z,1020.48
2016-11-12T05:49:29.552Z,1020.49
2016-11-12T05:50:10.149Z,1020.49
2016-11-12T05:50:50.754Z,1020.51
2016-11-12T05:51:31.370Z,1020.55
2016-11-12T05:52:12.022Z,1020.54
2016-11-12T05:52:52.756Z,1020.58
2016-11-12T05:53:33.460Z,1020.57
2016-11-12T05:54:14.075Z,1020.57
2016-11-12T05:54:54.658Z,1020.58
2016-11-12T05:55:35.280Z,1020.59
2016-11-12T05:56:15.928Z,1020.62
2016-11-12T05:56:56.616Z,1020.6
2016-11-12T05:57:37.230Z,1020.62
2016-11-12T05:58:17.844Z,1020.6
2016-11-12T05:58:58.578Z,1020.6
2016-11-12T05:59:39.280Z,1020.61
2016-11-12T06:00:19.960Z,1020.62
2016-11-12T06:01:00.610Z,1020.64
2016-11-12T06:01:41.220Z,1020.63
2016-11-12T06:02:21.866Z,1020.66
2016-11-12T06:03:02.508Z,1020.68
2016-11-12T06:03:43.112Z,1020.66
2016-11-12T06:04:23.718Z,1020.69
2016-11-12T06:05:04.360Z,1020.68
2016-11-12T06:05:45.015Z,1020.7
2016-11-12T06:06:25.669Z,1020.7
2016-11-12T06:07:06.336Z,1020.74
2016-11-12T06:07:46.961Z,1020.71
2016-11-12T06:08:27.567Z,1020.75
2016-11-12T06:09:08.389Z,1020.74
2016-11-12T06:09:49.029Z,1020.76
2016-11-12T06:10:30.457Z,1020.75
2016-11-12T06:11:10.333Z,1020.75
2016-11-12T06:11:51.041Z,1020.72
2016-11-12T06:12:31.687Z,1020.73
2016-11-12T06:13:12.283Z,1020.73
2016-11-12T06:13:52.915Z,1020.71
2016-11-12T06:14:33.599Z,1020.71
2016-11-12T06:15:14.249Z,1020.71
2016-11-12T06:15:54.897Z,1020.7
2016-11-12T06:16:35.551Z,1020.67
2016-11-12T06:17:16.163Z,1020.69
2016-11-12T06:17:56.815Z,1020.62
2016-11-12T06:18:37.442Z,1020.66
2016-11-12T06:19:18.128Z,1020.64
2016-11-12T06:19:58.797Z,1020.64
2016-11-12T06:20:39.485Z,1020.66
2016-11-12T06:21:20.218Z,1020.66
2016-11-12T06:22:00.823Z,1020.66
2016-11-12T06:22:41.483Z,1020.67
2016-11-12T06:23:22.215Z,1020.68
2016-11-12T06:24:02.826Z,1020.67
2016-11-12T06:24:43.579Z,1020.65
2016-11-12T06:25:24.228Z,1020.59
2016-11-12T06:26:04.948Z,1020.63
2016-11-12T06:26:45.646Z,1020.63
2016-11-12T06:27:26.302Z,1020.63
2016-11-12T06:28:07.009Z,1020.59
2016-11-12T06:28:47.696Z,1020.64
2016-11-12T06:29:28.355Z,1020.62
2016-11-12T06:30:09.022Z,1020.65
2016-11-12T06:30:49.714Z,1020.63
2016-11-12T06:31:30.410Z,1020.67
2016-11-12T06:32:11.093Z,1020.64
2016-11-12T06:32:51.810Z,1020.66
2016-11-12T06:33:32.452Z,1020.67
2016-11-12T06:34:13.242Z,1020.66
2016-11-12T06:34:54.001Z,1020.7
2016-11-12T06:35:34.736Z,1020.65
2016-11-12T06:36:15.385Z,1020.67
2016-11-12T06:36:55.963Z,1020.67
2016-11-12T06:37:36.605Z,1020.66
2016-11-12T06:38:17.187Z,1020.65
2016-11-12T06:38:57.873Z,1020.67
2016-11-12T06:39:38.561Z,1020.66
2016-11-12T06:40:19.168Z,1020.65
2016-11-12T06:40:59.827Z,1020.67
2016-11-12T06:41:40.530Z,1020.68
2016-11-12T06:42:21.180Z,1020.67
2016-11-12T06:43:01.791Z,1020.69
2016-11-12T06:43:42.421Z,1020.68
2016-11-12T06:44:23.163Z,1020.66
2016-11-12T06:45:03.783Z,1020.66
2016-11-12T06:45:44.446Z,1020.69
2016-11-12T06:46:25.225Z,1020.69
2016-11-12T06:47:05.859Z,1020.67
2016-11-12T06:47:46.467Z,1020.66
2016-11-12T06:48:27.971Z,1020.63
2016-11-12T06:49:07.752Z,1020.67
2016-11-12T06:49:48.488Z,1020.68
2016-11-12T06:50:29.154Z,1020.71
2016-11-12T06:51:09.722Z,1020.7
2016-11-12T06:51:50.434Z,1020.73
2016-11-12T06:52:31.153Z,1020.75
2016-11-12T06:54:49.149Z,1020.73
2016-11-12T06:55:29.889Z,1020.76
2016-11-12T06:56:10.734Z,1020.75
2016-11-12T06:56:51.536Z,1020.74
2016-11-12T06:57:32.132Z,1020.74
2016-11-12T06:58:12.856Z,1020.74
2016-11-12T06:58:53.554Z,1020.7
2016-11-12T06:59:34.294Z,1020.7
2016-11-12T07:00:15.057Z,1020.68
2016-11-12T07:00:55.772Z,1020.68
2016-11-12T07:01:36.606Z,1020.71
2016-11-12T07:02:17.266Z,1020.73
2016-11-12T07:02:57.957Z,1020.72
2016-11-12T07:03:38.600Z,1020.67
2016-11-12T07:04:19.237Z,1020.68
2016-11-12T07:04:59.970Z,1020.67
2016-11-12T07:05:40.709Z,1020.7
2016-11-12T07:06:21.361Z,1020.68
2016-11-12T07:07:01.991Z,1020.66
2016-11-12T07:07:42.655Z,1020.68
2016-11-12T07:08:23.309Z,1020.68
2016-11-12T07:09:04.055Z,1020.68
2016-11-12T07:09:44.737Z,1020.69
2016-11-12T07:10:25.609Z,1020.72
2016-11-12T07:11:06.225Z,1020.72
2016-11-12T07:11:46.887Z,1020.67
2016-11-12T07:12:27.544Z,1020.67
2016-11-12T07:13:08.289Z,1020.66
2016-11-12T07:13:49.008Z,1020.66
2016-11-12T07:14:29.714Z,1020.67
2016-11-12T07:15:10.403Z,1020.66
2016-11-12T07:15:51.134Z,1020.67
2016-11-12T07:16:31.925Z,1020.68
2016-11-12T07:17:12.602Z,1020.69
2016-11-12T07:17:53.352Z,1020.73
2016-11-12T07:18:33.983Z,1020.72
2016-11-12T07:19:14.656Z,1020.75
2016-11-12T07:19:55.380Z,1020.75
2016-11-12T07:20:36.166Z,1020.76
2016-11-12T07:21:16.858Z,1020.76
2016-11-12T07:21:57.602Z,1020.79
2016-11-12T07:22:38.314Z,1020.78
2016-11-12T07:23:19.026Z,1020.78
2016-11-12T07:23:59.746Z,1020.77
2016-11-12T07:24:40.474Z,1020.81
2016-11-12T07:25:21.188Z,1020.79
2016-11-12T07:26:01.922Z,1020.76
2016-11-12T07:26:42.586Z,1020.8
2016-11-12T07:27:23.435Z,1020.8
2016-11-12T07:28:04.068Z,1020.79
2016-11-12T07:28:44.696Z,1020.77
2016-11-12T07:29:25.386Z,1020.78
2016-11-12T07:30:06.109Z,1020.79
2016-11-12T07:30:46.805Z,1020.8
2016-11-12T07:31:27.479Z,1020.77
2016-11-12T07:32:08.118Z,1020.74
2016-11-12T07:32:48.733Z,1020.78
2016-11-12T07:33:29.302Z,1020.72
2016-11-12T07:34:10.043Z,1020.73
2016-11-12T07:34:50.703Z,1020.75
2016-11-12T07:35:31.401Z,1020.69
2016-11-12T07:36:12.036Z,1020.69
2016-11-12T07:36:52.697Z,1020.71
2016-11-12T07:37:33.433Z,1020.74
2016-11-12T07:38:14.134Z,1020.67
2016-11-12T07:38:54.765Z,1020.71
2016-11-12T07:39:35.518Z,1020.72
2016-11-12T07:40:16.331Z,1020.72
2016-11-12T07:40:56.984Z,1020.7
2016-11-12T07:41:37.783Z,1020.72
2016-11-12T07:42:18.517Z,1020.68
2016-11-12T07:42:59.181Z,1020.68
2016-11-12T07:43:39.803Z,1020.7
2016-11-12T07:44:20.415Z,1020.69
2016-11-12T07:45:01.190Z,1020.72
2016-11-12T07:45:41.871Z,1020.69
2016-11-12T07:46:22.419Z,1020.71
2016-11-12T07:47:03.060Z,1020.68
2016-11-12T07:47:43.902Z,1020.71
2016-11-12T07:48:24.453Z,1020.69
2016-11-12T07:49:05.054Z,1020.66
2016-11-12T07:49:45.678Z,1020.71
2016-11-12T07:50:26.239Z,1020.71
2016-11-12T07:51:06.874Z,1020.68
2016-11-12T07:51:47.574Z,1020.69
2016-11-12T07:52:28.170Z,1020.71
2016-11-12T07:53:08.784Z,1020.72
2016-11-12T07:53:49.412Z,1020.7
2016-11-12T07:54:30.024Z,1020.71
2016-11-12T07:55:10.697Z,1020.67
2016-11-12T07:55:51.425Z,1020.7
2016-11-12T07:56:32.109Z,1020.72
2016-11-12T07:57:12.752Z,1020.7
2016-11-12T07:57:53.569Z,1020.73
2016-11-12T07:58:34.267Z,1020.7
2016-11-12T07:59:14.874Z,1020.71
2016-11-12T07:59:55.496Z,1020.68
2016-11-12T08:00:36.237Z,1020.69
2016-11-12T08:01:16.983Z,1020.73
2016-11-12T08:01:57.703Z,1020.71
2016-11-12T08:02:38.486Z,1020.72
2016-11-12T08:03:19.101Z,1020.69
2016-11-12T08:03:59.740Z,1020.72
2016-11-12T08:04:40.618Z,1020.66
2016-11-12T08:05:22.097Z,1020.62
2016-11-12T08:06:02.770Z,1020.62
2016-11-12T08:06:43.489Z,1020.62
2016-11-12T08:07:24.142Z,1020.63
2016-11-12T08:08:04.742Z,1020.66
2016-11-12T08:08:45.418Z,1020.63
2016-11-12T08:09:26.106Z,1020.63
2016-11-12T08:10:06.836Z,1020.65
2016-11-12T08:10:47.590Z,1020.61
2016-11-12T08:11:28.270Z,1020.61
2016-11-12T08:12:09.030Z,1020.6
2016-11-12T08:12:49.698Z,1020.6
2016-11-12T08:13:30.370Z,1020.65
2016-11-12T08:14:11.030Z,1020.64
2016-11-12T08:14:51.702Z,1020.64
2016-11-12T08:15:32.472Z,1020.68
2016-11-12T08:16:13.143Z,1020.71
2016-11-12T08:16:53.894Z,1020.73
2016-11-12T08:17:34.516Z,1020.69
2016-11-12T08:18:15.177Z,1020.7
2016-11-12T08:18:55.921Z,1020.69
2016-11-12T08:19:36.582Z,1020.72
2016-11-12T08:20:17.255Z,1020.7
2016-11-12T08:20:57.945Z,1020.68
2016-11-12T08:21:38.610Z,1020.64